sensor_id;sensor_type;location;lat;lon;timestamp;temperature;humidity
52397;DHT22;38322;53.108;6.308;2023-12-14T06:03:24;4.00;99.90
52397;DHT22;38322;53.108;6.308;2023-12-14T06:05:50;4.00;99.90
52397;DHT22;38322;53.108;6.308;2023-12-14T06:08:16;4.00;99.90
52397;DHT22;38322;53.108;6.308;2023-12-14T06:10:42;4.00;99.90
52397;DHT22;38322;53.108;6.308;2023-12-14T06:13:08;4.00;99.90
52397;DHT22;38322;53.108;6.308;2023-12-14T06:15:34;4.00;99.90
52397;DHT22;38322;53.108;6.308;2023-12-14T06:18:00;4.00;99.90
52397;DHT22;38322;53.108;6.308;2023-12-14T06:20:25;4.00;99.90
52397;DHT22;38322;53.108;6.308;2023-12-14T06:22:52;4.00;99.90
52397;DHT22;38322;53.108;6.308;2023-12-14T06:25:17;4.00;99.90
52397;DHT22;38322;53.108;6.308;2023-12-14T06:27:43;4.00;99.90
52397;DHT22;38322;53.108;6.308;2023-12-14T06:30:10;4.00;99.90
52397;DHT22;38322;53.108;6.308;2023-12-14T06:32:38;4.00;99.90
52397;DHT22;38322;53.108;6.308;2023-12-14T06:35:05;4.00;99.90
52397;DHT22;38322;53.108;6.308;2023-12-14T06:37:31;4.00;99.90
52397;DHT22;38322;53.108;6.308;2023-12-14T06:39:57;4.00;99.90
52397;DHT22;38322;53.108;6.308;2023-12-14T06:42:23;4.00;99.90
52397;DHT22;38322;53.108;6.308;2023-12-14T06:44:48;4.00;99.90
52397;DHT22;38322;53.108;6.308;2023-12-14T06:47:14;4.10;99.90
52397;DHT22;38322;53.108;6.308;2023-12-14T06:49:40;4.00;99.90
52397;DHT22;38322;53.108;6.308;2023-12-14T06:52:06;4.00;99.90
52397;DHT22;38322;53.108;6.308;2023-12-14T06:54:33;4.10;99.90
52397;DHT22;38322;53.108;6.308;2023-12-14T06:56:59;4.00;99.90
52397;DHT22;38322;53.108;6.308;2023-12-14T06:59:24;4.00;99.90
52397;DHT22;38322;53.108;6.308;2023-12-14T07:01:50;4.10;99.90
52397;DHT22;38322;53.108;6.308;2023-12-14T07:04:16;4.00;99.90
52397;DHT22;38322;53.108;6.308;2023-12-14T07:06:50;4.00;99.90
52397;DHT22;38322;53.108;6.308;2023-12-14T07:09:17;4.00;99.90
52397;DHT22;38322;53.108;6.308;2023-12-14T07:11:43;4.00;99.90
52397;DHT22;38322;53.108;6.308;2023-12-14T07:14:09;4.10;99.90
52397;DHT22;38322;53.108;6.308;2023-12-14T07:16:34;4.00;99.90
52397;DHT22;38322;53.108;6.308;2023-12-14T07:19:00;4.00;99.90
52397;DHT22;38322;53.108;6.308;2023-12-14T07:21:26;4.00;99.90
52397;DHT22;38322;53.108;6.308;2023-12-14T07:23:52;4.00;99.90
52397;DHT22;38322;53.108;6.308;2023-12-14T07:26:18;4.10;99.90
52397;DHT22;38322;53.108;6.308;2023-12-14T07:28:43;4.10;99.90
52397;DHT22;38322;53.108;6.308;2023-12-14T07:31:09;4.10;99.90
52397;DHT22;38322;53.108;6.308;2023-12-14T07:33:35;4.10;99.90
52397;DHT22;38322;53.108;6.308;2023-12-14T07:36:01;4.10;99.90
52397;DHT22;38322;53.108;6.308;2023-12-14T07:38:27;4.10;99.90
52397;DHT22;38322;53.108;6.308;2023-12-14T07:40:53;4.10;99.90
52397;DHT22;38322;53.108;6.308;2023-12-14T07:43:19;4.10;99.90
52397;DHT22;38322;53.108;6.308;2023-12-14T07:45:45;4.10;99.90
52397;DHT22;38322;53.108;6.308;2023-12-14T07:48:11;4.10;99.90
52397;DHT22;38322;53.108;6.308;2023-12-14T07:50:37;4.10;99.90
52397;DHT22;38322;53.108;6.308;2023-12-14T07:53:03;4.10;99.90
52397;DHT22;38322;53.108;6.308;2023-12-14T07:55:30;4.10;99.90
52397;DHT22;38322;53.108;6.308;2023-12-14T07:57:56;4.10;99.90
52397;DHT22;38322;53.108;6.308;2023-12-14T08:00:22;4.20;99.90
52397;DHT22;38322;53.108;6.308;2023-12-14T08:02:48;4.10;99.90
52397;DHT22;38322;53.108;6.308;2023-12-14T08:05:14;4.20;99.90
52397;DHT22;38322;53.108;6.308;2023-12-14T08:07:40;4.20;99.90
52397;DHT22;38322;53.108;6.308;2023-12-14T08:10:07;4.20;99.90
52397;DHT22;38322;53.108;6.308;2023-12-14T08:12:33;4.20;99.90
52397;DHT22;38322;53.108;6.308;2023-12-14T08:14:58;4.20;99.90
52397;DHT22;38322;53.108;6.308;2023-12-14T08:17:24;4.20;99.90
52397;DHT22;38322;53.108;6.308;2023-12-14T08:19:50;4.20;99.90
52397;DHT22;38322;53.108;6.308;2023-12-14T08:22:16;4.20;99.90
52397;DHT22;38322;53.108;6.308;2023-12-14T08:24:42;4.20;99.90
52397;DHT22;38322;53.108;6.308;2023-12-14T08:27:08;4.30;99.90
52397;DHT22;38322;53.108;6.308;2023-12-14T08:29:35;4.30;99.90
52397;DHT22;38322;53.108;6.308;2023-12-14T08:32:01;4.30;99.90
52397;DHT22;38322;53.108;6.308;2023-12-14T08:34:27;4.30;99.90
52397;DHT22;38322;53.108;6.308;2023-12-14T08:36:53;4.40;99.90
52397;DHT22;38322;53.108;6.308;2023-12-14T08:39:19;4.40;99.90
52397;DHT22;38322;53.108;6.308;2023-12-14T08:41:46;4.40;99.90
52397;DHT22;38322;53.108;6.308;2023-12-14T08:44:14;4.40;99.90
52397;DHT22;38322;53.108;6.308;2023-12-14T08:46:41;4.40;99.90
52397;DHT22;38322;53.108;6.308;2023-12-14T08:49:07;4.40;99.90
52397;DHT22;38322;53.108;6.308;2023-12-14T08:51:33;4.40;99.90
52397;DHT22;38322;53.108;6.308;2023-12-14T08:53:59;4.40;99.90
52397;DHT22;38322;53.108;6.308;2023-12-14T08:56:25;4.50;99.90
52397;DHT22;38322;53.108;6.308;2023-12-14T08:58:51;4.50;99.90
52397;DHT22;38322;53.108;6.308;2023-12-14T09:01:20;4.60;99.90
52397;DHT22;38322;53.108;6.308;2023-12-14T09:03:47;4.60;99.90
52397;DHT22;38322;53.108;6.308;2023-12-14T09:06:12;4.60;99.90
52397;DHT22;38322;53.108;6.308;2023-12-14T09:08:39;4.60;99.90
52397;DHT22;38322;53.108;6.308;2023-12-14T09:11:05;4.60;99.90
52397;DHT22;38322;53.108;6.308;2023-12-14T09:13:31;4.70;99.90
52397;DHT22;38322;53.108;6.308;2023-12-14T09:15:57;4.70;99.90
52397;DHT22;38322;53.108;6.308;2023-12-14T09:18:23;4.70;99.90
52397;DHT22;38322;53.108;6.308;2023-12-14T09:20:50;4.70;99.90
52397;DHT22;38322;53.108;6.308;2023-12-14T09:23:16;4.70;99.90
52397;DHT22;38322;53.108;6.308;2023-12-14T09:25:42;4.80;99.90
52397;DHT22;38322;53.108;6.308;2023-12-14T09:28:08;4.80;99.90
52397;DHT22;38322;53.108;6.308;2023-12-14T09:30:34;4.70;99.90
52397;DHT22;38322;53.108;6.308;2023-12-14T09:33:00;4.70;99.90
52397;DHT22;38322;53.108;6.308;2023-12-14T09:35:26;4.70;99.90
52397;DHT22;38322;53.108;6.308;2023-12-14T09:37:52;4.80;99.90
52397;DHT22;38322;53.108;6.308;2023-12-14T09:40:19;4.70;99.90
52397;DHT22;38322;53.108;6.308;2023-12-14T09:42:45;4.70;99.90
52397;DHT22;38322;53.108;6.308;2023-12-14T09:45:11;4.70;99.90
52397;DHT22;38322;53.108;6.308;2023-12-14T09:47:38;4.70;99.90
52397;DHT22;38322;53.108;6.308;2023-12-14T09:50:04;4.80;99.90
52397;DHT22;38322;53.108;6.308;2023-12-14T09:52:31;4.90;99.90
52397;DHT22;38322;53.108;6.308;2023-12-14T09:55:00;4.90;99.90
52397;DHT22;38322;53.108;6.308;2023-12-14T09:57:26;5.00;99.90
52397;DHT22;38322;53.108;6.308;2023-12-14T09:59:54;5.00;99.90
52397;DHT22;38322;53.108;6.308;2023-12-14T10:02:25;5.10;99.90
52397;DHT22;38322;53.108;6.308;2023-12-14T10:04:51;5.10;99.90
52397;DHT22;38322;53.108;6.308;2023-12-14T10:07:18;5.10;99.90
52397;DHT22;38322;53.108;6.308;2023-12-14T10:09:44;5.10;99.90
52397;DHT22;38322;53.108;6.308;2023-12-14T10:12:10;5.10;99.90
52397;DHT22;38322;53.108;6.308;2023-12-14T10:14:37;5.10;99.90
52397;DHT22;38322;53.108;6.308;2023-12-14T10:17:17;5.20;99.90
52397;DHT22;38322;53.108;6.308;2023-12-14T10:19:44;5.10;99.90
52397;DHT22;38322;53.108;6.308;2023-12-14T10:22:10;5.10;99.90
52397;DHT22;38322;53.108;6.308;2023-12-14T10:24:36;5.10;99.90
52397;DHT22;38322;53.108;6.308;2023-12-14T10:27:05;5.20;99.90
52397;DHT22;38322;53.108;6.308;2023-12-14T10:29:33;5.20;99.90
52397;DHT22;38322;53.108;6.308;2023-12-14T10:32:03;5.30;99.90
52397;DHT22;38322;53.108;6.308;2023-12-14T10:34:34;5.30;99.90
52397;DHT22;38322;53.108;6.308;2023-12-14T10:37:00;5.30;99.90
52397;DHT22;38322;53.108;6.308;2023-12-14T10:39:26;5.40;99.90
52397;DHT22;38322;53.108;6.308;2023-12-14T10:41:54;5.40;99.90
52397;DHT22;38322;53.108;6.308;2023-12-14T10:44:25;5.50;99.90
52397;DHT22;38322;53.108;6.308;2023-12-14T10:46:54;5.50;99.90
52397;DHT22;38322;53.108;6.308;2023-12-14T10:49:24;5.60;99.90
52397;DHT22;38322;53.108;6.308;2023-12-14T10:51:53;5.60;99.90
52397;DHT22;38322;53.108;6.308;2023-12-14T10:54:21;5.60;99.90
52397;DHT22;38322;53.108;6.308;2023-12-14T10:56:48;5.60;99.90
52397;DHT22;38322;53.108;6.308;2023-12-14T10:59:16;5.70;99.90
52397;DHT22;38322;53.108;6.308;2023-12-14T11:01:42;5.70;99.90
52397;DHT22;38322;53.108;6.308;2023-12-14T11:04:08;5.70;99.90
52397;DHT22;38322;53.108;6.308;2023-12-14T11:06:40;5.80;99.90
52397;DHT22;38322;53.108;6.308;2023-12-14T11:09:07;5.80;99.90
52397;DHT22;38322;53.108;6.308;2023-12-14T11:11:42;5.90;99.90
52397;DHT22;38322;53.108;6.308;2023-12-14T11:14:11;5.90;99.90
52397;DHT22;38322;53.108;6.308;2023-12-14T11:16:38;5.90;99.90
52397;DHT22;38322;53.108;6.308;2023-12-14T11:21:47;5.80;99.90
52397;DHT22;38322;53.108;6.308;2023-12-14T11:24:13;5.90;99.90
52397;DHT22;38322;53.108;6.308;2023-12-14T11:26:40;5.80;99.90
52397;DHT22;38322;53.108;6.308;2023-12-14T11:29:06;5.90;99.90
52397;DHT22;38322;53.108;6.308;2023-12-14T11:31:32;5.90;99.90
52397;DHT22;38322;53.108;6.308;2023-12-14T11:34:00;6.00;99.90
52397;DHT22;38322;53.108;6.308;2023-12-14T11:36:29;5.90;99.90
52397;DHT22;38322;53.108;6.308;2023-12-14T11:38:54;5.80;99.90
52397;DHT22;38322;53.108;6.308;2023-12-14T11:41:21;5.80;99.90
52397;DHT22;38322;53.108;6.308;2023-12-14T11:43:47;5.80;99.90
52397;DHT22;38322;53.108;6.308;2023-12-14T11:46:14;5.80;99.90
52397;DHT22;38322;53.108;6.308;2023-12-14T11:48:44;5.80;99.90
52397;DHT22;38322;53.108;6.308;2023-12-14T11:51:10;5.80;99.90
52397;DHT22;38322;53.108;6.308;2023-12-14T11:53:36;5.90;99.90
52397;DHT22;38322;53.108;6.308;2023-12-14T11:56:05;5.90;99.90
52397;DHT22;38322;53.108;6.308;2023-12-14T11:58:32;5.90;99.90
52397;DHT22;38322;53.108;6.308;2023-12-14T12:01:14;5.90;99.90
52397;DHT22;38322;53.108;6.308;2023-12-14T12:03:40;6.00;99.90
52397;DHT22;38322;53.108;6.308;2023-12-14T12:06:06;6.00;99.90
52397;DHT22;38322;53.108;6.308;2023-12-14T12:08:40;5.90;99.90
52397;DHT22;38322;53.108;6.308;2023-12-14T12:11:07;5.90;99.90
52397;DHT22;38322;53.108;6.308;2023-12-14T12:13:34;5.90;99.90
52397;DHT22;38322;53.108;6.308;2023-12-14T12:16:00;5.80;99.90
52397;DHT22;38322;53.108;6.308;2023-12-14T12:18:26;5.80;99.90
52397;DHT22;38322;53.108;6.308;2023-12-14T12:20:53;5.80;99.90
52397;DHT22;38322;53.108;6.308;2023-12-14T12:23:19;5.80;99.90
52397;DHT22;38322;53.108;6.308;2023-12-14T12:25:45;5.80;99.90
52397;DHT22;38322;53.108;6.308;2023-12-14T12:28:10;5.70;99.90
52397;DHT22;38322;53.108;6.308;2023-12-14T12:30:36;5.70;99.90
52397;DHT22;38322;53.108;6.308;2023-12-14T12:33:02;5.70;99.90
52397;DHT22;38322;53.108;6.308;2023-12-14T12:35:28;5.70;99.90
52397;DHT22;38322;53.108;6.308;2023-12-14T12:37:56;5.70;99.90
52397;DHT22;38322;53.108;6.308;2023-12-14T12:40:22;5.70;99.90
52397;DHT22;38322;53.108;6.308;2023-12-14T12:42:49;5.70;99.90
52397;DHT22;38322;53.108;6.308;2023-12-14T12:45:16;5.70;99.90
52397;DHT22;38322;53.108;6.308;2023-12-14T12:47:43;5.70;99.90
52397;DHT22;38322;53.108;6.308;2023-12-14T12:50:09;5.70;99.90
52397;DHT22;38322;53.108;6.308;2023-12-14T12:52:35;5.70;99.90
52397;DHT22;38322;53.108;6.308;2023-12-14T12:55:03;5.60;99.90
52397;DHT22;38322;53.108;6.308;2023-12-14T12:57:29;5.70;99.90
52397;DHT22;38322;53.108;6.308;2023-12-14T12:59:55;5.70;99.90
52397;DHT22;38322;53.108;6.308;2023-12-14T13:02:21;5.70;99.90
52397;DHT22;38322;53.108;6.308;2023-12-14T13:04:47;5.70;99.90
52397;DHT22;38322;53.108;6.308;2023-12-14T13:07:13;5.70;99.90
52397;DHT22;38322;53.108;6.308;2023-12-14T13:09:39;5.70;99.90
52397;DHT22;38322;53.108;6.308;2023-12-14T13:12:05;5.60;99.90
52397;DHT22;38322;53.108;6.308;2023-12-14T13:14:31;5.60;99.90
52397;DHT22;38322;53.108;6.308;2023-12-14T13:16:57;5.60;99.90
52397;DHT22;38322;53.108;6.308;2023-12-14T13:19:25;5.60;99.90
52397;DHT22;38322;53.108;6.308;2023-12-14T13:21:52;5.60;99.90
52397;DHT22;38322;53.108;6.308;2023-12-14T13:24:18;5.60;99.90
52397;DHT22;38322;53.108;6.308;2023-12-14T13:26:43;5.60;99.90
52397;DHT22;38322;53.108;6.308;2023-12-14T13:29:09;5.60;99.90
52397;DHT22;38322;53.108;6.308;2023-12-14T13:31:36;5.60;99.90
52397;DHT22;38322;53.108;6.308;2023-12-14T13:34:01;5.60;99.90
52397;DHT22;38322;53.108;6.308;2023-12-14T13:36:29;5.50;99.90
52397;DHT22;38322;53.108;6.308;2023-12-14T13:38:55;5.50;99.90
52397;DHT22;38322;53.108;6.308;2023-12-14T13:41:22;5.50;99.90
52397;DHT22;38322;53.108;6.308;2023-12-14T13:43:48;5.50;99.90
52397;DHT22;38322;53.108;6.308;2023-12-14T13:46:14;5.50;99.90
52397;DHT22;38322;53.108;6.308;2023-12-14T13:48:40;5.50;99.90
52397;DHT22;38322;53.108;6.308;2023-12-14T13:51:07;5.60;99.90
52397;DHT22;38322;53.108;6.308;2023-12-14T13:53:33;5.50;99.90
52397;DHT22;38322;53.108;6.308;2023-12-14T13:55:59;5.50;99.90
52397;DHT22;38322;53.108;6.308;2023-12-14T13:58:25;5.50;99.90
52397;DHT22;38322;53.108;6.308;2023-12-14T14:00:51;5.50;99.90
52397;DHT22;38322;53.108;6.308;2023-12-14T14:03:17;5.50;99.90
52397;DHT22;38322;53.108;6.308;2023-12-14T14:05:43;5.50;99.90
52397;DHT22;38322;53.108;6.308;2023-12-14T14:08:10;5.50;99.90
52397;DHT22;38322;53.108;6.308;2023-12-14T14:10:36;5.40;99.90
52397;DHT22;38322;53.108;6.308;2023-12-14T14:13:02;5.50;99.90
52397;DHT22;38322;53.108;6.308;2023-12-14T14:15:28;5.40;99.90
52397;DHT22;38322;53.108;6.308;2023-12-14T14:17:54;5.50;99.90
52397;DHT22;38322;53.108;6.308;2023-12-14T14:20:21;5.50;99.90
52397;DHT22;38322;53.108;6.308;2023-12-14T14:22:48;5.50;99.90
52397;DHT22;38322;53.108;6.308;2023-12-14T14:25:14;5.50;99.90
52397;DHT22;38322;53.108;6.308;2023-12-14T14:27:40;5.50;99.90
52397;DHT22;38322;53.108;6.308;2023-12-14T14:30:07;5.50;99.90
52397;DHT22;38322;53.108;6.308;2023-12-14T14:32:33;5.50;99.90
52397;DHT22;38322;53.108;6.308;2023-12-14T14:35:01;5.60;99.90
52397;DHT22;38322;53.108;6.308;2023-12-14T14:37:27;5.60;99.90
52397;DHT22;38322;53.108;6.308;2023-12-14T14:39:53;5.60;99.90
52397;DHT22;38322;53.108;6.308;2023-12-14T14:42:19;5.60;99.90
52397;DHT22;38322;53.108;6.308;2023-12-14T14:44:44;5.50;99.90
52397;DHT22;38322;53.108;6.308;2023-12-14T14:47:10;5.50;99.90
52397;DHT22;38322;53.108;6.308;2023-12-14T14:49:36;5.50;99.90
52397;DHT22;38322;53.108;6.308;2023-12-14T14:52:02;5.40;99.90
52397;DHT22;38322;53.108;6.308;2023-12-14T14:54:28;5.40;99.90
52397;DHT22;38322;53.108;6.308;2023-12-14T14:56:54;5.30;99.90
52397;DHT22;38322;53.108;6.308;2023-12-14T14:59:20;5.30;99.90
52397;DHT22;38322;53.108;6.308;2023-12-14T15:01:45;5.30;99.90
52397;DHT22;38322;53.108;6.308;2023-12-14T15:04:12;5.20;99.90
52397;DHT22;38322;53.108;6.308;2023-12-14T15:06:38;5.20;99.90
52397;DHT22;38322;53.108;6.308;2023-12-14T15:09:05;5.10;99.90
52397;DHT22;38322;53.108;6.308;2023-12-14T15:11:33;5.10;99.90
52397;DHT22;38322;53.108;6.308;2023-12-14T15:13:59;5.00;99.90
52397;DHT22;38322;53.108;6.308;2023-12-14T15:16:25;4.90;99.90
52397;DHT22;38322;53.108;6.308;2023-12-14T15:18:51;4.90;99.90
52397;DHT22;38322;53.108;6.308;2023-12-14T15:21:17;4.80;99.90
52397;DHT22;38322;53.108;6.308;2023-12-14T15:23:43;4.70;99.90
52397;DHT22;38322;53.108;6.308;2023-12-14T15:26:12;4.60;99.90
52397;DHT22;38322;53.108;6.308;2023-12-14T15:28:38;4.50;99.90
52397;DHT22;38322;53.108;6.308;2023-12-14T15:31:04;4.40;99.90
52397;DHT22;38322;53.108;6.308;2023-12-14T15:33:30;4.30;99.90
52397;DHT22;38322;53.108;6.308;2023-12-14T15:35:56;4.30;99.90
52397;DHT22;38322;53.108;6.308;2023-12-14T15:38:22;4.20;99.90
52397;DHT22;38322;53.108;6.308;2023-12-14T15:40:48;4.20;99.90
52397;DHT22;38322;53.108;6.308;2023-12-14T15:43:14;4.10;99.90
52397;DHT22;38322;53.108;6.308;2023-12-14T15:45:40;4.10;99.90
52397;DHT22;38322;53.108;6.308;2023-12-14T15:48:06;4.00;99.90
52397;DHT22;38322;53.108;6.308;2023-12-14T15:50:34;4.00;99.90
52397;DHT22;38322;53.108;6.308;2023-12-14T15:53:00;3.90;99.90
52397;DHT22;38322;53.108;6.308;2023-12-14T15:55:25;3.90;99.90
52397;DHT22;38322;53.108;6.308;2023-12-14T15:57:53;3.90;99.90
52397;DHT22;38322;53.108;6.308;2023-12-14T16:00:19;3.90;99.90
52397;DHT22;38322;53.108;6.308;2023-12-14T16:02:46;3.90;99.90
52397;DHT22;38322;53.108;6.308;2023-12-14T16:05:12;3.90;99.90
52397;DHT22;38322;53.108;6.308;2023-12-14T16:07:38;3.90;99.90
52397;DHT22;38322;53.108;6.308;2023-12-14T16:10:04;3.90;99.90
52397;DHT22;38322;53.108;6.308;2023-12-14T16:12:30;3.90;99.90
52397;DHT22;38322;53.108;6.308;2023-12-14T16:14:56;3.90;99.90
52397;DHT22;38322;53.108;6.308;2023-12-14T16:17:23;4.00;99.90
52397;DHT22;38322;53.108;6.308;2023-12-14T16:19:49;4.00;99.90
52397;DHT22;38322;53.108;6.308;2023-12-14T16:22:15;4.00;99.90
52397;DHT22;38322;53.108;6.308;2023-12-14T16:24:44;4.00;99.90
52397;DHT22;38322;53.108;6.308;2023-12-14T16:27:10;4.10;99.90
52397;DHT22;38322;53.108;6.308;2023-12-14T16:29:36;4.10;99.90
52397;DHT22;38322;53.108;6.308;2023-12-14T16:32:05;4.10;99.90
52397;DHT22;38322;53.108;6.308;2023-12-14T16:34:32;4.10;99.90
52397;DHT22;38322;53.108;6.308;2023-12-14T16:36:58;4.20;99.90
52397;DHT22;38322;53.108;6.308;2023-12-14T16:39:24;4.20;99.90
52397;DHT22;38322;53.108;6.308;2023-12-14T16:41:52;4.20;99.90
52397;DHT22;38322;53.108;6.308;2023-12-14T16:44:18;4.20;99.90
52397;DHT22;38322;53.108;6.308;2023-12-14T16:46:44;4.20;99.90
52397;DHT22;38322;53.108;6.308;2023-12-14T16:49:10;4.30;99.90
52397;DHT22;38322;53.108;6.308;2023-12-14T16:51:36;4.70;99.90
52397;DHT22;38322;53.108;6.308;2023-12-14T16:54:02;4.30;99.90
52397;DHT22;38322;53.108;6.308;2023-12-14T16:56:29;4.30;99.90
52397;DHT22;38322;53.108;6.308;2023-12-14T16:58:56;4.30;99.90
52397;DHT22;38322;53.108;6.308;2023-12-14T17:01:22;4.30;99.90
52397;DHT22;38322;53.108;6.308;2023-12-14T17:03:48;4.40;99.90
52397;DHT22;38322;53.108;6.308;2023-12-14T17:06:18;4.40;99.90
52397;DHT22;38322;53.108;6.308;2023-12-14T17:08:44;4.40;99.90
52397;DHT22;38322;53.108;6.308;2023-12-14T17:11:10;4.40;99.90
52397;DHT22;38322;53.108;6.308;2023-12-14T17:13:38;4.40;99.90
52397;DHT22;38322;53.108;6.308;2023-12-14T17:16:24;4.50;99.90
52397;DHT22;38322;53.108;6.308;2023-12-14T17:18:50;4.50;99.90
52397;DHT22;38322;53.108;6.308;2023-12-14T17:21:23;4.50;99.90
52397;DHT22;38322;53.108;6.308;2023-12-14T17:23:51;4.50;99.90
52397;DHT22;38322;53.108;6.308;2023-12-14T17:26:17;4.50;99.90
52397;DHT22;38322;53.108;6.308;2023-12-14T17:28:49;4.50;99.90
52397;DHT22;38322;53.108;6.308;2023-12-14T17:31:17;4.50;99.90
52397;DHT22;38322;53.108;6.308;2023-12-14T17:33:43;4.50;99.90
52397;DHT22;38322;53.108;6.308;2023-12-14T17:36:10;4.50;99.90
52397;DHT22;38322;53.108;6.308;2023-12-14T17:38:36;4.50;99.90
52397;DHT22;38322;53.108;6.308;2023-12-14T17:41:02;4.50;99.90
52397;DHT22;38322;53.108;6.308;2023-12-14T17:43:31;4.50;99.90
52397;DHT22;38322;53.108;6.308;2023-12-14T17:45:57;4.50;99.90
52397;DHT22;38322;53.108;6.308;2023-12-14T17:48:23;4.40;99.90
52397;DHT22;38322;53.108;6.308;2023-12-14T17:50:49;4.40;99.90
52397;DHT22;38322;53.108;6.308;2023-12-14T17:53:16;4.40;99.90
52397;DHT22;38322;53.108;6.308;2023-12-14T17:55:41;4.40;99.90
52397;DHT22;38322;53.108;6.308;2023-12-14T17:58:07;4.40;99.90
52397;DHT22;38322;53.108;6.308;2023-12-14T18:00:33;4.40;99.90
52397;DHT22;38322;53.108;6.308;2023-12-14T18:02:59;4.40;99.90
52397;DHT22;38322;53.108;6.308;2023-12-14T18:05:25;4.40;99.90
52397;DHT22;38322;53.108;6.308;2023-12-14T18:07:51;4.40;99.90
52397;DHT22;38322;53.108;6.308;2023-12-14T18:10:18;4.40;99.90
52397;DHT22;38322;53.108;6.308;2023-12-14T18:12:46;4.40;99.90
52397;DHT22;38322;53.108;6.308;2023-12-14T18:15:12;4.40;99.90
52397;DHT22;38322;53.108;6.308;2023-12-14T18:17:38;4.40;99.90
52397;DHT22;38322;53.108;6.308;2023-12-14T18:20:04;4.40;99.90
52397;DHT22;38322;53.108;6.308;2023-12-14T18:22:30;4.40;99.90
52397;DHT22;38322;53.108;6.308;2023-12-14T18:24:57;4.40;99.90
52397;DHT22;38322;53.108;6.308;2023-12-14T18:27:23;4.40;99.90
52397;DHT22;38322;53.108;6.308;2023-12-14T18:29:50;4.40;99.90
52397;DHT22;38322;53.108;6.308;2023-12-14T18:32:17;4.40;99.90
52397;DHT22;38322;53.108;6.308;2023-12-14T18:34:42;4.40;99.90
52397;DHT22;38322;53.108;6.308;2023-12-14T18:37:09;4.40;99.90
52397;DHT22;38322;53.108;6.308;2023-12-14T18:39:41;4.40;99.90
52397;DHT22;38322;53.108;6.308;2023-12-14T18:42:07;4.50;99.90
52397;DHT22;38322;53.108;6.308;2023-12-14T18:44:34;4.50;99.90
52397;DHT22;38322;53.108;6.308;2023-12-14T18:47:01;4.50;99.90
52397;DHT22;38322;53.108;6.308;2023-12-14T18:49:27;4.50;99.90
52397;DHT22;38322;53.108;6.308;2023-12-14T18:51:53;4.50;99.90
52397;DHT22;38322;53.108;6.308;2023-12-14T18:54:19;4.50;99.90
52397;DHT22;38322;53.108;6.308;2023-12-14T18:56:45;4.50;99.90
52397;DHT22;38322;53.108;6.308;2023-12-14T18:59:11;4.50;99.90
52397;DHT22;38322;53.108;6.308;2023-12-14T19:01:37;4.40;99.90
52397;DHT22;38322;53.108;6.308;2023-12-14T19:04:03;4.50;99.90
52397;DHT22;38322;53.108;6.308;2023-12-14T19:06:29;4.50;99.90
52397;DHT22;38322;53.108;6.308;2023-12-14T19:08:56;4.50;99.90
52397;DHT22;38322;53.108;6.308;2023-12-14T19:11:22;4.50;99.90
52397;DHT22;38322;53.108;6.308;2023-12-14T19:13:49;4.50;99.90
52397;DHT22;38322;53.108;6.308;2023-12-14T19:16:24;4.50;99.90
52397;DHT22;38322;53.108;6.308;2023-12-14T19:18:51;4.50;99.90
52397;DHT22;38322;53.108;6.308;2023-12-14T19:21:19;4.60;99.90
52397;DHT22;38322;53.108;6.308;2023-12-14T19:23:45;4.60;99.90
52397;DHT22;38322;53.108;6.308;2023-12-14T19:26:17;4.60;99.90
52397;DHT22;38322;53.108;6.308;2023-12-14T19:28:43;4.60;99.90
52397;DHT22;38322;53.108;6.308;2023-12-14T19:31:09;4.60;99.90
52397;DHT22;38322;53.108;6.308;2023-12-14T19:33:35;4.60;99.90
52397;DHT22;38322;53.108;6.308;2023-12-14T19:36:01;4.60;99.90
52397;DHT22;38322;53.108;6.308;2023-12-14T19:38:27;4.60;99.90
52397;DHT22;38322;53.108;6.308;2023-12-14T19:40:53;4.60;99.90
52397;DHT22;38322;53.108;6.308;2023-12-14T19:43:19;4.60;99.90
52397;DHT22;38322;53.108;6.308;2023-12-14T19:45:44;4.60;99.90
52397;DHT22;38322;53.108;6.308;2023-12-14T19:48:10;4.60;99.90
52397;DHT22;38322;53.108;6.308;2023-12-14T19:50:36;4.40;99.90
52397;DHT22;38322;53.108;6.308;2023-12-14T19:53:02;4.70;99.90
52397;DHT22;38322;53.108;6.308;2023-12-14T19:55:28;4.70;99.90
52397;DHT22;38322;53.108;6.308;2023-12-14T19:57:54;4.60;99.90
52397;DHT22;38322;53.108;6.308;2023-12-14T20:00:20;4.60;99.90
52397;DHT22;38322;53.108;6.308;2023-12-14T20:02:46;4.70;99.90
52397;DHT22;38322;53.108;6.308;2023-12-14T20:05:12;4.70;99.90
52397;DHT22;38322;53.108;6.308;2023-12-14T20:07:38;4.70;99.90
52397;DHT22;38322;53.108;6.308;2023-12-14T20:10:04;4.70;99.90
52397;DHT22;38322;53.108;6.308;2023-12-14T20:12:30;4.70;99.90
52397;DHT22;38322;53.108;6.308;2023-12-14T20:14:56;4.70;99.90
52397;DHT22;38322;53.108;6.308;2023-12-14T20:17:22;4.70;99.90
52397;DHT22;38322;53.108;6.308;2023-12-14T20:19:48;4.70;99.90
52397;DHT22;38322;53.108;6.308;2023-12-14T20:22:14;4.70;99.90
52397;DHT22;38322;53.108;6.308;2023-12-14T20:24:42;4.70;99.90
52397;DHT22;38322;53.108;6.308;2023-12-14T20:27:09;4.70;99.90
52397;DHT22;38322;53.108;6.308;2023-12-14T20:29:35;4.70;99.90
52397;DHT22;38322;53.108;6.308;2023-12-14T20:32:01;4.70;99.90
52397;DHT22;38322;53.108;6.308;2023-12-14T20:34:27;4.80;99.90
52397;DHT22;38322;53.108;6.308;2023-12-14T20:36:53;4.70;99.90
52397;DHT22;38322;53.108;6.308;2023-12-14T20:39:19;4.80;99.90
52397;DHT22;38322;53.108;6.308;2023-12-14T20:41:45;4.80;99.90
52397;DHT22;38322;53.108;6.308;2023-12-14T20:44:11;4.80;99.90
52397;DHT22;38322;53.108;6.308;2023-12-14T20:46:37;4.80;99.90
52397;DHT22;38322;53.108;6.308;2023-12-14T20:49:03;4.80;99.90
52397;DHT22;38322;53.108;6.308;2023-12-14T20:51:29;4.80;99.90
52397;DHT22;38322;53.108;6.308;2023-12-14T20:53:55;4.80;99.90
52397;DHT22;38322;53.108;6.308;2023-12-14T20:56:21;4.80;99.90
52397;DHT22;38322;53.108;6.308;2023-12-14T20:58:48;4.80;99.90
